createdAt,value
2018-11-07T00:02:05.005Z,97.53
2018-11-07T00:04:33.635Z,95.97
2018-11-07T00:07:02.276Z,111.70
2018-11-07T00:09:30.961Z,102.93
2018-11-07T00:11:59.535Z,103.07
2018-11-07T00:14:28.139Z,103.40
2018-11-07T00:16:56.790Z,105.73
2018-11-07T00:19:25.452Z,109.10
2018-11-07T00:21:54.015Z,99.80
2018-11-07T00:24:22.874Z,102.40
2018-11-07T00:26:51.536Z,114.20
2018-11-07T00:29:20.072Z,97.53
2018-11-07T00:31:48.649Z,107.70
2018-11-07T00:34:17.342Z,106.13
2018-11-07T00:36:45.918Z,99.10
2018-11-07T00:39:14.418Z,105.90
2018-11-07T00:41:43.020Z,103.80
2018-11-07T00:44:11.585Z,103.83
2018-11-07T00:46:40.249Z,105.23
2018-11-07T00:49:08.892Z,101.73
2018-11-07T00:51:37.455Z,108.10
2018-11-07T00:54:06.101Z,119.27
2018-11-07T00:56:34.578Z,108.23
2018-11-07T00:59:03.043Z,93.77
2018-11-07T01:01:31.648Z,100.27
2018-11-07T01:04:00.362Z,96.63
2018-11-07T01:06:29.081Z,93.50
2018-11-07T01:08:57.561Z,99.10
2018-11-07T01:11:26.197Z,98.23
2018-11-07T01:13:54.699Z,91.50
2018-11-07T01:16:23.281Z,117.33
2018-11-07T01:18:52.045Z,100.27
2018-11-07T01:21:20.633Z,99.07
2018-11-07T01:23:49.191Z,93.83
2018-11-07T01:26:19.175Z,105.03
2018-11-07T01:28:47.697Z,98.83
2018-11-07T01:31:16.339Z,97.40
2018-11-07T01:33:44.921Z,92.93
2018-11-07T01:36:13.542Z,92.20
2018-11-07T01:38:42.200Z,103.90
2018-11-07T01:41:10.820Z,95.30
2018-11-07T01:43:39.512Z,96.33
2018-11-07T01:46:08.182Z,99.70
2018-11-07T01:48:36.820Z,103.47
2018-11-07T01:51:05.926Z,100.00
2018-11-07T01:53:34.549Z,112.47
2018-11-07T01:56:03.201Z,97.53
2018-11-07T01:58:31.961Z,108.83
2018-11-07T02:01:00.673Z,102.40
2018-11-07T02:03:29.167Z,104.73
2018-11-07T02:05:57.814Z,105.37
2018-11-07T02:08:31.576Z,89.03
2018-11-07T02:11:01.066Z,96.13
2018-11-07T02:13:29.832Z,95.83
2018-11-07T02:15:58.540Z,104.17
2018-11-07T02:18:27.231Z,100.53
2018-11-07T02:20:55.794Z,86.60
2018-11-07T02:23:24.407Z,105.13
2018-11-07T02:25:53.058Z,92.43
2018-11-07T02:28:21.560Z,87.63
2018-11-07T02:30:50.297Z,96.90
2018-11-07T02:33:18.938Z,94.20
2018-11-07T02:35:47.482Z,92.07
2018-11-07T02:38:16.120Z,95.67
2018-11-07T02:40:44.791Z,100.10
2018-11-07T02:43:13.490Z,95.23
2018-11-07T02:45:42.052Z,100.67
2018-11-07T02:48:10.924Z,98.73
2018-11-07T02:50:39.517Z,94.30
2018-11-07T02:53:08.166Z,92.37
2018-11-07T02:55:36.740Z,101.60
2018-11-07T02:58:05.485Z,106.40
2018-11-07T03:00:34.011Z,101.50
2018-11-07T03:03:02.574Z,97.53
2018-11-07T03:05:31.160Z,96.40
2018-11-07T03:07:59.818Z,101.53
2018-11-07T03:10:28.396Z,97.27
2018-11-07T03:12:57.106Z,105.30
2018-11-07T03:15:25.828Z,108.13
2018-11-07T03:17:54.544Z,101.73
2018-11-07T03:20:23.099Z,91.30
2018-11-07T03:22:51.744Z,102.17
2018-11-07T03:25:20.451Z,91.80
2018-11-07T03:27:49.059Z,99.87
2018-11-07T03:30:17.707Z,112.17
2018-11-07T03:32:46.364Z,105.73
2018-11-07T03:35:20.286Z,106.80
2018-11-07T03:37:48.988Z,110.47
2018-11-07T03:40:17.550Z,143.33
2018-11-07T03:42:46.184Z,133.40
2018-11-07T03:45:14.833Z,129.60
2018-11-07T03:47:43.683Z,113.90
2018-11-07T03:55:08.639Z,137.40
2018-11-07T03:57:37.414Z,125.60
2018-11-07T04:00:08.220Z,130.00
2018-11-07T04:02:37.146Z,135.00
2018-11-07T04:07:34.386Z,116.50
2018-11-07T04:14:58.838Z,126.40
2018-11-07T04:17:27.585Z,121.55
2018-11-07T04:19:56.296Z,118.90
2018-11-07T04:24:52.844Z,124.00
2018-11-07T04:32:17.231Z,108.90
2018-11-07T04:37:14.150Z,117.20
2018-11-07T04:44:38.827Z,114.20
2018-11-07T04:47:07.767Z,117.95
2018-11-07T04:49:36.342Z,123.33
2018-11-07T04:59:28.381Z,130.70
2018-11-07T05:04:28.032Z,137.20
2018-11-07T05:06:56.858Z,125.70
2018-11-07T05:09:25.843Z,145.45
2018-11-07T05:19:19.095Z,117.47
2018-11-07T05:21:47.699Z,119.57
2018-11-07T05:24:16.235Z,117.73
2018-11-07T05:26:45.120Z,105.87
2018-11-07T05:29:14.006Z,127.80
2018-11-07T05:31:43.578Z,125.90
2018-11-07T05:34:12.317Z,143.80
2018-11-07T05:36:41.363Z,144.20
2018-11-07T05:39:10.605Z,151.77
2018-11-07T05:41:39.211Z,145.50
2018-11-07T05:46:36.048Z,177.13
2018-11-07T05:51:33.040Z,177.80
2018-11-07T05:54:01.911Z,181.10
2018-11-07T05:56:30.527Z,169.30
2018-11-07T05:58:59.355Z,162.50
2018-11-07T06:06:23.639Z,164.10
2018-11-07T06:08:52.566Z,141.53
2018-11-07T06:11:21.169Z,143.60
2018-11-07T06:13:49.886Z,139.73
2018-11-07T06:18:47.177Z,146.30
2018-11-07T06:21:15.902Z,124.65
2018-11-07T06:23:44.550Z,125.93
2018-11-07T06:28:41.334Z,112.80
2018-11-07T06:33:37.767Z,118.90
2018-11-07T06:36:06.872Z,107.50
2018-11-07T06:38:35.733Z,114.47
2018-11-07T06:41:04.500Z,114.87
2018-11-07T06:43:33.594Z,111.77
2018-11-07T06:46:02.173Z,110.87
2018-11-07T06:48:30.905Z,109.00
2018-11-07T06:50:59.765Z,101.70
2018-11-07T06:53:28.592Z,102.37
2018-11-07T06:55:57.296Z,97.50
2018-11-07T06:58:26.354Z,88.83
2018-11-07T07:00:54.970Z,105.23
2018-11-07T07:03:23.602Z,84.73
2018-11-07T07:05:52.442Z,89.17
2018-11-07T07:08:21.465Z,87.63
2018-11-07T07:10:50.173Z,86.85
2018-11-07T07:13:18.847Z,85.80
2018-11-07T07:20:43.764Z,85.53
2018-11-07T07:23:12.506Z,76.50
2018-11-07T07:25:41.491Z,79.53
2018-11-07T07:28:10.969Z,72.40
2018-11-07T07:30:39.668Z,74.10
2018-11-07T07:33:08.404Z,75.83
2018-11-07T07:35:36.929Z,62.90
2018-11-07T07:38:06.092Z,65.47
2018-11-07T07:40:34.690Z,70.33
2018-11-07T07:43:03.873Z,71.37
2018-11-07T07:45:32.542Z,63.60
2018-11-07T07:48:01.156Z,60.83
2018-11-07T07:50:29.883Z,69.60
2018-11-07T07:52:58.876Z,53.87
2018-11-07T07:55:27.601Z,55.13
2018-11-07T07:57:56.269Z,60.07
2018-11-07T08:00:25.722Z,56.27
2018-11-07T08:02:54.422Z,58.90
2018-11-07T08:15:17.686Z,53.40
2018-11-07T08:25:12.582Z,46.90
2018-11-07T08:35:08.665Z,48.55
2018-11-07T08:37:37.573Z,43.30
2018-11-07T08:40:09.185Z,45.20
2018-11-07T08:42:38.484Z,41.40
2018-11-07T08:45:07.882Z,44.17
2018-11-07T08:47:36.692Z,39.40
2018-11-07T08:50:07.637Z,38.63
2018-11-07T08:52:36.304Z,38.13
2018-11-07T08:55:06.084Z,35.10
2018-11-07T08:57:34.863Z,38.23
2018-11-07T09:00:03.827Z,31.77
2018-11-07T09:02:32.472Z,36.17
2018-11-07T09:05:01.039Z,35.50
2018-11-07T09:07:29.571Z,29.67
2018-11-07T09:09:58.106Z,34.70
2018-11-07T09:12:26.676Z,34.80
2018-11-07T09:14:55.276Z,29.27
2018-11-07T09:17:23.972Z,31.03
2018-11-07T09:19:52.958Z,31.40
2018-11-07T09:22:21.779Z,32.33
2018-11-07T09:24:50.393Z,37.70
2018-11-07T09:27:19.347Z,29.00
2018-11-07T09:29:48.243Z,32.70
2018-11-07T09:32:16.834Z,27.37
2018-11-07T09:34:45.618Z,29.77
2018-11-07T09:37:14.452Z,33.50
2018-11-07T09:39:43.207Z,32.23
2018-11-07T09:42:12.036Z,33.07
2018-11-07T09:44:40.613Z,33.83
2018-11-07T09:47:09.254Z,37.33
2018-11-07T09:49:37.838Z,29.17
2018-11-07T09:52:06.643Z,30.50
2018-11-07T09:54:35.204Z,31.67
2018-11-07T09:57:04.428Z,25.63
2018-11-07T09:59:33.088Z,34.77
2018-11-07T10:02:01.733Z,29.53
2018-11-07T10:04:30.653Z,29.30
2018-11-07T10:06:59.397Z,33.60
2018-11-07T10:09:28.141Z,33.40
2018-11-07T10:11:56.971Z,26.20
2018-11-07T10:14:25.563Z,30.20
2018-11-07T10:16:54.203Z,27.43
2018-11-07T10:21:50.835Z,30.43
2018-11-07T10:24:19.771Z,29.60
2018-11-07T10:26:48.388Z,27.97
2018-11-07T10:29:17.477Z,27.37
2018-11-07T10:31:45.983Z,24.37
2018-11-07T10:34:14.681Z,26.93
2018-11-07T10:36:43.618Z,18.77
2018-11-07T10:39:12.309Z,26.00
2018-11-07T10:41:43.861Z,24.23
2018-11-07T10:44:12.547Z,26.93
2018-11-07T10:46:41.199Z,26.63
2018-11-07T10:49:10.127Z,25.03
2018-11-07T10:51:38.990Z,26.20
2018-11-07T10:54:07.762Z,25.33
2018-11-07T10:56:36.365Z,26.77
2018-11-07T10:59:05.388Z,22.17
2018-11-07T11:01:39.650Z,36.80
2018-11-07T11:04:08.203Z,23.40
2018-11-07T11:06:36.982Z,27.30
2018-11-07T11:09:07.351Z,26.93
2018-11-07T11:11:36.074Z,22.90
2018-11-07T11:14:04.826Z,25.37
2018-11-07T11:16:33.350Z,22.10
2018-11-07T11:19:02.184Z,24.50
2018-11-07T11:21:31.018Z,19.90
2018-11-07T11:23:59.717Z,26.77
2018-11-07T11:26:28.384Z,20.60
2018-11-07T11:28:57.018Z,23.30
2018-11-07T11:31:25.833Z,23.27
2018-11-07T11:33:54.563Z,23.17
2018-11-07T11:41:19.047Z,24.55
2018-11-07T11:43:47.555Z,22.35
2018-11-07T11:46:16.191Z,24.50
2018-11-07T11:48:44.875Z,30.23
2018-11-07T11:51:13.578Z,23.33
2018-11-07T11:53:42.089Z,27.20
2018-11-07T11:56:10.976Z,21.73
2018-11-07T11:58:39.837Z,23.17
2018-11-07T12:01:08.739Z,24.53
2018-11-07T12:03:37.499Z,23.60
2018-11-07T12:06:06.269Z,21.67
2018-11-07T12:08:34.919Z,20.70
2018-11-07T12:23:24.795Z,25.00
2018-11-07T12:28:22.323Z,34.40
2018-11-07T12:33:18.664Z,30.30
2018-11-07T12:35:47.471Z,26.40
2018-11-07T12:38:16.422Z,27.93
2018-11-07T12:40:45.318Z,31.17
2018-11-07T12:43:14.149Z,29.00
2018-11-07T12:45:44.045Z,27.33
2018-11-07T12:48:12.679Z,29.10
2018-11-07T12:50:41.248Z,31.07
2018-11-07T12:53:09.888Z,31.00
2018-11-07T12:55:38.798Z,33.37
2018-11-07T12:58:08.799Z,36.67
2018-11-07T13:00:37.192Z,31.30
2018-11-07T13:03:05.980Z,30.83
2018-11-07T13:05:34.643Z,38.17
2018-11-07T13:08:03.173Z,26.10
2018-11-07T13:10:31.815Z,35.87
2018-11-07T13:13:00.768Z,37.23
2018-11-07T13:15:29.382Z,29.80
2018-11-07T13:17:58.039Z,36.30
2018-11-07T13:20:26.670Z,27.40
2018-11-07T13:22:55.796Z,28.63
2018-11-07T13:25:25.354Z,23.50
2018-11-07T13:27:54.172Z,30.10
2018-11-07T13:30:23.570Z,33.30
2018-11-07T13:40:26.480Z,29.70
2018-11-07T14:03:02.825Z,31.40
2018-11-07T14:05:31.729Z,28.70
2018-11-07T14:15:46.165Z,31.05
2018-11-07T14:18:17.725Z,34.40
2018-11-07T14:20:51.382Z,34.97
2018-11-07T14:23:21.768Z,39.20
2018-11-07T14:25:54.930Z,31.23
2018-11-07T14:28:26.312Z,36.20
2018-11-07T14:30:55.248Z,35.40
2018-11-07T14:33:24.623Z,34.37
2018-11-07T14:35:53.275Z,33.60
2018-11-07T14:38:21.872Z,32.03
2018-11-07T14:40:50.481Z,37.83
2018-11-07T14:43:19.088Z,34.40
2018-11-07T14:45:47.680Z,33.47
2018-11-07T14:48:16.218Z,35.80
2018-11-07T14:50:44.984Z,35.03
2018-11-07T14:53:13.534Z,42.03
2018-11-07T14:55:42.094Z,37.83
2018-11-07T14:58:10.953Z,34.47
2018-11-07T15:00:39.669Z,37.87
2018-11-07T15:03:08.233Z,39.07
2018-11-07T15:05:36.947Z,35.20
2018-11-07T15:08:06.233Z,38.13
2018-11-07T15:10:34.919Z,37.50
2018-11-07T15:13:03.488Z,37.30
2018-11-07T15:15:32.114Z,35.30
2018-11-07T15:18:00.756Z,35.30
2018-11-07T15:20:29.643Z,42.30
2018-11-07T15:22:58.429Z,37.70
2018-11-07T15:25:27.170Z,35.45
2018-11-07T15:27:55.710Z,40.95
2018-11-07T15:30:24.277Z,41.07
2018-11-07T15:32:53.012Z,36.30
2018-11-07T15:35:21.582Z,39.20
2018-11-07T15:37:50.311Z,48.00
2018-11-07T15:40:19.947Z,43.50
2018-11-07T15:42:49.122Z,40.57
2018-11-07T15:45:19.342Z,47.40
2018-11-07T15:47:48.019Z,48.60
2018-11-07T15:50:21.950Z,37.30
2018-11-07T15:52:50.696Z,44.20
2018-11-07T15:55:19.303Z,45.30
2018-11-07T15:57:47.864Z,44.60
2018-11-07T16:00:17.738Z,49.60
2018-11-07T16:02:46.547Z,47.20
2018-11-07T16:05:16.323Z,48.60
2018-11-07T16:07:45.052Z,49.95
2018-11-07T16:10:15.116Z,45.40
2018-11-07T16:12:43.783Z,45.20
2018-11-07T16:15:14.162Z,51.00
2018-11-07T16:17:43.385Z,55.37
2018-11-07T16:20:13.132Z,53.10
2018-11-07T16:22:43.084Z,58.67
2018-11-07T16:25:11.690Z,63.20
2018-11-07T16:27:41.150Z,51.30
2018-11-07T16:30:12.916Z,49.65
2018-11-07T16:32:41.931Z,49.47
2018-11-07T16:35:11.969Z,50.20
2018-11-07T16:37:40.790Z,50.93
2018-11-07T16:40:12.432Z,57.60
2018-11-07T16:42:41.890Z,51.37
2018-11-07T16:45:12.038Z,66.90
2018-11-07T16:47:40.620Z,62.25
2018-11-07T16:50:10.929Z,62.80
2018-11-07T16:52:39.892Z,56.30
2018-11-07T16:55:08.678Z,58.93
2018-11-07T16:57:38.134Z,58.47
2018-11-07T17:00:13.073Z,55.80
2018-11-07T17:02:42.814Z,54.93
2018-11-07T17:05:12.470Z,56.05
2018-11-07T17:07:41.143Z,52.50
2018-11-07T17:10:11.222Z,60.33
2018-11-07T17:12:40.029Z,58.85
2018-11-07T17:15:08.718Z,50.20
2018-11-07T17:17:37.854Z,59.30
2018-11-07T17:20:08.027Z,56.50
2018-11-07T17:22:36.806Z,49.90
2018-11-07T17:25:07.123Z,52.20
2018-11-07T17:27:36.468Z,56.80
2018-11-07T17:32:33.214Z,57.50
2018-11-07T17:39:58.637Z,57.10
2018-11-07T17:42:27.679Z,68.67
2018-11-07T17:44:56.798Z,54.10
2018-11-07T17:59:47.824Z,53.80
2018-11-07T18:02:16.591Z,56.45
2018-11-07T18:04:45.219Z,62.85
2018-11-07T18:09:41.634Z,52.93
2018-11-07T18:24:30.306Z,55.83
2018-11-07T18:26:59.130Z,71.13
2018-11-07T18:39:19.618Z,56.30
2018-11-07T18:41:48.348Z,58.23
2018-11-07T18:46:45.149Z,56.00
2018-11-07T18:51:43.261Z,56.45
2018-11-07T18:54:12.346Z,50.25
2018-11-07T18:56:41.346Z,54.20
2018-11-07T18:59:10.493Z,61.10
2018-11-07T19:04:09.541Z,56.20
2018-11-07T19:06:39.176Z,57.47
2018-11-07T19:09:09.376Z,54.43
2018-11-07T19:11:39.110Z,64.50
2018-11-07T19:14:09.142Z,53.53
2018-11-07T19:21:36.071Z,55.80
2018-11-07T19:24:05.436Z,51.83
2018-11-07T19:26:34.176Z,59.00
2018-11-07T19:29:02.780Z,55.57
2018-11-07T19:31:31.455Z,53.20
2018-11-07T19:34:00.571Z,54.23
2018-11-07T19:36:30.686Z,44.70
2018-11-07T19:39:00.878Z,46.10
2018-11-07T19:41:30.020Z,47.20
2018-11-07T19:43:59.013Z,47.97
2018-11-07T19:46:29.195Z,51.07
2018-11-07T19:48:59.491Z,63.40
2018-11-07T19:51:28.903Z,53.53
2018-11-07T19:53:59.586Z,61.70
2018-11-07T19:56:30.435Z,61.70
2018-11-07T19:59:00.857Z,67.57
2018-11-07T20:01:30.828Z,64.37
2018-11-07T20:03:59.856Z,78.87
2018-11-07T20:06:31.284Z,74.87
2018-11-07T20:09:02.149Z,69.43
2018-11-07T20:11:32.674Z,52.17
2018-11-07T20:14:01.872Z,53.57
2018-11-07T20:16:30.752Z,52.40
2018-11-07T20:18:59.970Z,46.77
2018-11-07T20:21:28.802Z,58.40
2018-11-07T20:23:57.898Z,49.40
2018-11-07T20:26:27.859Z,57.53
2018-11-07T20:28:57.154Z,50.70
2018-11-07T20:31:26.458Z,51.00
2018-11-07T20:33:56.536Z,56.43
2018-11-07T20:36:25.922Z,49.47
2018-11-07T20:41:22.799Z,54.53
2018-11-07T20:53:46.077Z,53.40
2018-11-07T20:56:15.060Z,47.43
2018-11-07T20:58:43.673Z,42.80
2018-11-07T21:01:12.256Z,39.73
2018-11-07T21:03:40.858Z,42.43
2018-11-07T21:06:09.506Z,43.97
2018-11-07T21:08:38.358Z,46.07
2018-11-07T21:13:34.943Z,40.87
2018-11-07T21:16:03.525Z,46.90
2018-11-07T21:18:32.158Z,46.43
2018-11-07T21:21:00.807Z,60.77
2018-11-07T21:23:29.420Z,55.60
2018-11-07T21:25:58.676Z,60.53
2018-11-07T21:28:27.254Z,54.43
2018-11-07T21:30:55.830Z,48.30
2018-11-07T21:33:24.367Z,50.00
2018-11-07T21:35:54.312Z,49.77
2018-11-07T21:38:22.953Z,52.83
2018-11-07T21:40:51.693Z,45.33
2018-11-07T21:43:20.983Z,54.20
2018-11-07T21:45:49.623Z,51.15
2018-11-07T21:48:18.229Z,58.30
2018-11-07T21:50:46.898Z,57.23
2018-11-07T21:55:43.219Z,51.10
2018-11-07T21:58:11.801Z,59.23
2018-11-07T22:37:44.791Z,44.05
2018-11-07T22:40:17.633Z,43.70
2018-11-07T22:42:46.183Z,49.43
2018-11-07T22:45:15.300Z,46.37
2018-11-07T22:47:43.961Z,53.10
2018-11-07T23:02:47.168Z,40.80
2018-11-07T23:05:15.973Z,41.80
2018-11-07T23:07:46.198Z,44.07
2018-11-07T23:20:08.637Z,43.37
2018-11-07T23:22:37.399Z,38.10
2018-11-07T23:59:38.784Z,33.97
